sensor_id;sensor_type;location;lat;lon;timestamp;temperature;humidity
54431;DHT22;40342;52.998;5.862;2023-03-01T00:03:08;-0.10;99.90
54431;DHT22;40342;52.998;5.862;2023-03-01T00:05:33;-0.10;99.90
54431;DHT22;40342;52.998;5.862;2023-03-01T00:07:59;-0.10;99.90
54431;DHT22;40342;52.998;5.862;2023-03-01T00:10:24;-0.10;99.90
54431;DHT22;40342;52.998;5.862;2023-03-01T00:12:51;-0.10;99.90
54431;DHT22;40342;52.998;5.862;2023-03-01T00:15:17;-0.10;99.90
54431;DHT22;40342;52.998;5.862;2023-03-01T00:17:42;-0.20;99.90
54431;DHT22;40342;52.998;5.862;2023-03-01T00:20:08;-0.20;99.90
54431;DHT22;40342;52.998;5.862;2023-03-01T00:22:35;-0.20;99.90
54431;DHT22;40342;52.998;5.862;2023-03-01T00:25:01;-0.20;99.90
54431;DHT22;40342;52.998;5.862;2023-03-01T00:27:26;-0.20;99.90
54431;DHT22;40342;52.998;5.862;2023-03-01T00:29:52;-0.20;99.90
54431;DHT22;40342;52.998;5.862;2023-03-01T00:32:17;-0.30;99.90
54431;DHT22;40342;52.998;5.862;2023-03-01T00:34:43;-0.30;99.90
54431;DHT22;40342;52.998;5.862;2023-03-01T00:37:22;-0.30;99.90
54431;DHT22;40342;52.998;5.862;2023-03-01T00:39:48;-0.30;99.90
54431;DHT22;40342;52.998;5.862;2023-03-01T00:42:13;-0.30;99.90
54431;DHT22;40342;52.998;5.862;2023-03-01T00:44:39;-0.20;99.90
54431;DHT22;40342;52.998;5.862;2023-03-01T00:47:04;-0.20;99.90
54431;DHT22;40342;52.998;5.862;2023-03-01T00:49:30;-0.30;99.90
54431;DHT22;40342;52.998;5.862;2023-03-01T00:51:55;-0.30;99.90
54431;DHT22;40342;52.998;5.862;2023-03-01T00:54:21;-0.40;99.90
54431;DHT22;40342;52.998;5.862;2023-03-01T00:56:46;-0.40;99.90
54431;DHT22;40342;52.998;5.862;2023-03-01T00:59:12;-0.50;99.90
54431;DHT22;40342;52.998;5.862;2023-03-01T01:01:37;-0.50;99.90
54431;DHT22;40342;52.998;5.862;2023-03-01T01:04:04;-0.50;99.90
54431;DHT22;40342;52.998;5.862;2023-03-01T01:06:32;-0.60;99.90
54431;DHT22;40342;52.998;5.862;2023-03-01T01:08:58;-0.60;99.90
54431;DHT22;40342;52.998;5.862;2023-03-01T01:11:25;-0.70;99.90
54431;DHT22;40342;52.998;5.862;2023-03-01T01:13:50;-0.70;99.90
54431;DHT22;40342;52.998;5.862;2023-03-01T01:16:17;-0.80;99.90
54431;DHT22;40342;52.998;5.862;2023-03-01T01:18:43;-0.80;99.90
54431;DHT22;40342;52.998;5.862;2023-03-01T01:21:09;-0.80;99.90
54431;DHT22;40342;52.998;5.862;2023-03-01T01:23:36;-0.80;99.90
54431;DHT22;40342;52.998;5.862;2023-03-01T01:26:05;-0.80;99.90
54431;DHT22;40342;52.998;5.862;2023-03-01T01:28:31;-0.90;99.90
54431;DHT22;40342;52.998;5.862;2023-03-01T01:30:57;-0.90;99.90
54431;DHT22;40342;52.998;5.862;2023-03-01T01:33:22;-0.90;99.90
54431;DHT22;40342;52.998;5.862;2023-03-01T01:35:48;-0.90;99.90
54431;DHT22;40342;52.998;5.862;2023-03-01T01:38:13;-0.80;99.90
54431;DHT22;40342;52.998;5.862;2023-03-01T01:40:45;-0.80;99.90
54431;DHT22;40342;52.998;5.862;2023-03-01T01:43:19;-0.80;99.90
54431;DHT22;40342;52.998;5.862;2023-03-01T01:45:45;-0.80;99.90
54431;DHT22;40342;52.998;5.862;2023-03-01T01:48:12;-0.80;99.90
54431;DHT22;40342;52.998;5.862;2023-03-01T01:50:38;-0.80;99.90
54431;DHT22;40342;52.998;5.862;2023-03-01T01:53:06;-0.70;99.90
54431;DHT22;40342;52.998;5.862;2023-03-01T01:55:32;-0.70;99.90
54431;DHT22;40342;52.998;5.862;2023-03-01T01:57:58;-0.70;99.90
54431;DHT22;40342;52.998;5.862;2023-03-01T02:00:26;-0.70;99.90
54431;DHT22;40342;52.998;5.862;2023-03-01T02:02:54;-0.60;99.90
54431;DHT22;40342;52.998;5.862;2023-03-01T02:05:24;-0.60;99.90
54431;DHT22;40342;52.998;5.862;2023-03-01T02:07:51;-0.60;99.90
54431;DHT22;40342;52.998;5.862;2023-03-01T02:10:17;-0.60;99.90
54431;DHT22;40342;52.998;5.862;2023-03-01T02:12:42;-0.60;99.90
54431;DHT22;40342;52.998;5.862;2023-03-01T02:15:08;-0.70;99.90
54431;DHT22;40342;52.998;5.862;2023-03-01T02:17:33;-0.70;99.90
54431;DHT22;40342;52.998;5.862;2023-03-01T02:22:32;-0.80;99.90
54431;DHT22;40342;52.998;5.862;2023-03-01T02:25:04;-0.90;99.90
54431;DHT22;40342;52.998;5.862;2023-03-01T02:27:42;-1.00;99.90
54431;DHT22;40342;52.998;5.862;2023-03-01T02:30:12;-1.00;99.90
54431;DHT22;40342;52.998;5.862;2023-03-01T02:32:39;-1.10;99.90
54431;DHT22;40342;52.998;5.862;2023-03-01T02:35:10;-1.10;99.90
54431;DHT22;40342;52.998;5.862;2023-03-01T02:37:36;-1.10;99.90
54431;DHT22;40342;52.998;5.862;2023-03-01T02:40:04;-1.10;99.90
54431;DHT22;40342;52.998;5.862;2023-03-01T02:42:35;-1.10;99.90
54431;DHT22;40342;52.998;5.862;2023-03-01T02:45:02;-1.10;99.90
54431;DHT22;40342;52.998;5.862;2023-03-01T02:47:27;-1.10;99.90
54431;DHT22;40342;52.998;5.862;2023-03-01T02:49:53;-1.10;99.90
54431;DHT22;40342;52.998;5.862;2023-03-01T02:52:23;-1.10;99.90
54431;DHT22;40342;52.998;5.862;2023-03-01T02:55:00;-1.10;99.90
54431;DHT22;40342;52.998;5.862;2023-03-01T02:57:26;-1.10;99.90
54431;DHT22;40342;52.998;5.862;2023-03-01T02:59:53;-1.10;99.90
54431;DHT22;40342;52.998;5.862;2023-03-01T03:02:24;-1.20;99.90
54431;DHT22;40342;52.998;5.862;2023-03-01T03:05:09;-1.20;99.90
54431;DHT22;40342;52.998;5.862;2023-03-01T03:07:36;-1.20;99.90
54431;DHT22;40342;52.998;5.862;2023-03-01T03:10:02;-1.20;99.90
54431;DHT22;40342;52.998;5.862;2023-03-01T03:12:28;-1.20;99.90
54431;DHT22;40342;52.998;5.862;2023-03-01T03:14:53;-1.20;99.90
54431;DHT22;40342;52.998;5.862;2023-03-01T03:17:19;-1.20;99.90
54431;DHT22;40342;52.998;5.862;2023-03-01T03:19:44;-1.20;99.90
54431;DHT22;40342;52.998;5.862;2023-03-01T03:22:13;-1.20;99.90
54431;DHT22;40342;52.998;5.862;2023-03-01T03:24:39;-1.20;99.90
54431;DHT22;40342;52.998;5.862;2023-03-01T03:27:05;-1.20;99.90
54431;DHT22;40342;52.998;5.862;2023-03-01T03:29:30;-1.20;99.90
54431;DHT22;40342;52.998;5.862;2023-03-01T03:31:56;-1.20;99.90
54431;DHT22;40342;52.998;5.862;2023-03-01T03:34:21;-1.20;99.90
54431;DHT22;40342;52.998;5.862;2023-03-01T03:36:47;-1.20;99.90
54431;DHT22;40342;52.998;5.862;2023-03-01T03:39:12;-1.10;99.90
54431;DHT22;40342;52.998;5.862;2023-03-01T03:41:38;-1.10;99.90
54431;DHT22;40342;52.998;5.862;2023-03-01T03:44:03;-1.20;99.90
54431;DHT22;40342;52.998;5.862;2023-03-01T03:46:29;-1.10;99.90
54431;DHT22;40342;52.998;5.862;2023-03-01T03:48:55;-1.10;99.90
54431;DHT22;40342;52.998;5.862;2023-03-01T03:51:21;-1.20;99.90
54431;DHT22;40342;52.998;5.862;2023-03-01T03:53:47;-1.20;99.90
54431;DHT22;40342;52.998;5.862;2023-03-01T03:56:13;-1.30;99.90
54431;DHT22;40342;52.998;5.862;2023-03-01T03:58:39;-1.20;99.90
54431;DHT22;40342;52.998;5.862;2023-03-01T04:01:04;-1.20;99.90
54431;DHT22;40342;52.998;5.862;2023-03-01T04:03:30;-1.30;99.90
54431;DHT22;40342;52.998;5.862;2023-03-01T04:05:59;-1.30;99.90
54431;DHT22;40342;52.998;5.862;2023-03-01T04:08:25;-1.30;99.90
54431;DHT22;40342;52.998;5.862;2023-03-01T04:10:51;-1.30;99.90
54431;DHT22;40342;52.998;5.862;2023-03-01T04:13:18;-1.30;99.90
54431;DHT22;40342;52.998;5.862;2023-03-01T04:15:53;-1.30;99.90
54431;DHT22;40342;52.998;5.862;2023-03-01T04:18:20;-1.30;99.90
54431;DHT22;40342;52.998;5.862;2023-03-01T04:20:46;-1.40;99.90
54431;DHT22;40342;52.998;5.862;2023-03-01T04:23:13;-1.40;99.90
54431;DHT22;40342;52.998;5.862;2023-03-01T04:28:14;-1.40;99.90
54431;DHT22;40342;52.998;5.862;2023-03-01T04:30:40;-1.40;99.90
54431;DHT22;40342;52.998;5.862;2023-03-01T04:33:07;-1.40;99.90
54431;DHT22;40342;52.998;5.862;2023-03-01T04:35:32;-1.40;99.90
54431;DHT22;40342;52.998;5.862;2023-03-01T04:37:58;-1.40;99.90
54431;DHT22;40342;52.998;5.862;2023-03-01T04:40:23;-1.40;99.90
54431;DHT22;40342;52.998;5.862;2023-03-01T04:42:49;-1.40;99.90
54431;DHT22;40342;52.998;5.862;2023-03-01T04:45:14;-1.40;99.90
54431;DHT22;40342;52.998;5.862;2023-03-01T04:47:40;-1.40;99.90
54431;DHT22;40342;52.998;5.862;2023-03-01T04:50:06;-1.50;99.90
54431;DHT22;40342;52.998;5.862;2023-03-01T04:52:32;-1.50;99.90
54431;DHT22;40342;52.998;5.862;2023-03-01T04:54:57;-1.40;99.90
54431;DHT22;40342;52.998;5.862;2023-03-01T04:57:23;-1.50;99.90
54431;DHT22;40342;52.998;5.862;2023-03-01T04:59:48;-1.50;99.90
54431;DHT22;40342;52.998;5.862;2023-03-01T05:02:14;-1.50;99.90
54431;DHT22;40342;52.998;5.862;2023-03-01T05:04:39;-1.50;99.90
54431;DHT22;40342;52.998;5.862;2023-03-01T05:07:05;-1.60;99.90
54431;DHT22;40342;52.998;5.862;2023-03-01T05:09:30;-1.60;99.90
54431;DHT22;40342;52.998;5.862;2023-03-01T05:11:56;-1.60;99.90
54431;DHT22;40342;52.998;5.862;2023-03-01T05:14:21;-1.60;99.90
54431;DHT22;40342;52.998;5.862;2023-03-01T05:16:48;-1.60;99.90
54431;DHT22;40342;52.998;5.862;2023-03-01T05:19:13;-1.60;99.90
54431;DHT22;40342;52.998;5.862;2023-03-01T05:21:41;-1.60;99.90
54431;DHT22;40342;52.998;5.862;2023-03-01T05:24:25;-1.70;99.90
54431;DHT22;40342;52.998;5.862;2023-03-01T05:26:51;-1.70;99.90
54431;DHT22;40342;52.998;5.862;2023-03-01T05:29:20;-1.70;99.90
54431;DHT22;40342;52.998;5.862;2023-03-01T05:31:54;-1.70;99.90
54431;DHT22;40342;52.998;5.862;2023-03-01T05:34:23;-1.70;99.90
54431;DHT22;40342;52.998;5.862;2023-03-01T05:36:48;-1.70;99.90
54431;DHT22;40342;52.998;5.862;2023-03-01T05:39:22;-1.80;99.90
54431;DHT22;40342;52.998;5.862;2023-03-01T05:41:48;-1.80;99.90
54431;DHT22;40342;52.998;5.862;2023-03-01T05:44:16;-1.80;99.90
54431;DHT22;40342;52.998;5.862;2023-03-01T05:46:42;-1.80;99.90
54431;DHT22;40342;52.998;5.862;2023-03-01T05:49:08;-1.80;99.90
54431;DHT22;40342;52.998;5.862;2023-03-01T05:51:33;-1.80;99.90
54431;DHT22;40342;52.998;5.862;2023-03-01T05:53:59;-1.80;99.90
54431;DHT22;40342;52.998;5.862;2023-03-01T05:56:25;-1.90;99.90
54431;DHT22;40342;52.998;5.862;2023-03-01T05:58:50;-1.80;99.90
54431;DHT22;40342;52.998;5.862;2023-03-01T06:01:16;-1.90;99.90
54431;DHT22;40342;52.998;5.862;2023-03-01T06:03:41;-1.90;99.90
54431;DHT22;40342;52.998;5.862;2023-03-01T06:06:07;-1.80;99.90
54431;DHT22;40342;52.998;5.862;2023-03-01T06:08:32;-1.90;99.90
54431;DHT22;40342;52.998;5.862;2023-03-01T06:10:57;-1.90;99.90
54431;DHT22;40342;52.998;5.862;2023-03-01T06:13:23;-1.90;99.90
54431;DHT22;40342;52.998;5.862;2023-03-01T06:15:49;-1.90;99.90
54431;DHT22;40342;52.998;5.862;2023-03-01T06:18:15;-1.90;99.90
54431;DHT22;40342;52.998;5.862;2023-03-01T06:20:40;-1.90;99.90
54431;DHT22;40342;52.998;5.862;2023-03-01T06:23:06;-2.00;99.90
54431;DHT22;40342;52.998;5.862;2023-03-01T06:25:31;-1.90;99.90
54431;DHT22;40342;52.998;5.862;2023-03-01T06:27:57;-1.90;99.90
54431;DHT22;40342;52.998;5.862;2023-03-01T06:30:23;-1.90;99.90
54431;DHT22;40342;52.998;5.862;2023-03-01T06:32:49;-1.90;99.90
54431;DHT22;40342;52.998;5.862;2023-03-01T06:35:15;-1.90;99.90
54431;DHT22;40342;52.998;5.862;2023-03-01T06:37:43;-2.00;99.90
54431;DHT22;40342;52.998;5.862;2023-03-01T06:40:09;-2.00;99.90
54431;DHT22;40342;52.998;5.862;2023-03-01T06:42:37;-2.00;99.90
54431;DHT22;40342;52.998;5.862;2023-03-01T06:45:03;-2.00;99.90
54431;DHT22;40342;52.998;5.862;2023-03-01T06:47:28;-2.00;99.90
54431;DHT22;40342;52.998;5.862;2023-03-01T06:49:54;-2.00;99.90
54431;DHT22;40342;52.998;5.862;2023-03-01T06:52:19;-2.00;99.90
54431;DHT22;40342;52.998;5.862;2023-03-01T06:54:44;-2.10;99.90
54431;DHT22;40342;52.998;5.862;2023-03-01T06:57:10;-2.10;99.90
54431;DHT22;40342;52.998;5.862;2023-03-01T06:59:35;-2.00;99.90
54431;DHT22;40342;52.998;5.862;2023-03-01T07:02:01;-2.00;99.90
54431;DHT22;40342;52.998;5.862;2023-03-01T07:04:26;-2.10;99.90
54431;DHT22;40342;52.998;5.862;2023-03-01T07:06:53;-2.10;99.90
54431;DHT22;40342;52.998;5.862;2023-03-01T07:09:23;-2.10;99.90
54431;DHT22;40342;52.998;5.862;2023-03-01T07:11:49;-2.10;99.90
54431;DHT22;40342;52.998;5.862;2023-03-01T07:14:14;-2.10;99.90
54431;DHT22;40342;52.998;5.862;2023-03-01T07:16:40;-2.10;99.90
54431;DHT22;40342;52.998;5.862;2023-03-01T07:19:05;-2.10;99.90
54431;DHT22;40342;52.998;5.862;2023-03-01T07:21:31;-2.00;99.90
54431;DHT22;40342;52.998;5.862;2023-03-01T07:23:56;-2.00;99.90
54431;DHT22;40342;52.998;5.862;2023-03-01T07:26:22;-2.00;99.90
54431;DHT22;40342;52.998;5.862;2023-03-01T07:28:48;-1.90;99.90
54431;DHT22;40342;52.998;5.862;2023-03-01T07:31:13;-1.90;99.90
54431;DHT22;40342;52.998;5.862;2023-03-01T07:33:39;-1.90;99.90
54431;DHT22;40342;52.998;5.862;2023-03-01T07:36:05;-1.90;99.90
54431;DHT22;40342;52.998;5.862;2023-03-01T07:38:30;-1.80;99.90
54431;DHT22;40342;52.998;5.862;2023-03-01T07:40:59;-1.80;99.90
54431;DHT22;40342;52.998;5.862;2023-03-01T07:43:26;-1.80;99.90
54431;DHT22;40342;52.998;5.862;2023-03-01T07:45:51;-1.80;99.90
54431;DHT22;40342;52.998;5.862;2023-03-01T07:48:17;-1.70;99.90
54431;DHT22;40342;52.998;5.862;2023-03-01T07:50:42;-1.70;99.90
54431;DHT22;40342;52.998;5.862;2023-03-01T07:53:09;-1.60;99.90
54431;DHT22;40342;52.998;5.862;2023-03-01T07:55:34;-1.60;99.90
54431;DHT22;40342;52.998;5.862;2023-03-01T07:58:00;-1.50;99.90
54431;DHT22;40342;52.998;5.862;2023-03-01T08:00:25;-1.50;99.90
54431;DHT22;40342;52.998;5.862;2023-03-01T08:02:51;-1.50;99.90
54431;DHT22;40342;52.998;5.862;2023-03-01T08:05:16;-1.40;99.90
54431;DHT22;40342;52.998;5.862;2023-03-01T08:07:42;-1.40;99.90
54431;DHT22;40342;52.998;5.862;2023-03-01T08:10:08;-1.30;99.90
54431;DHT22;40342;52.998;5.862;2023-03-01T08:12:33;-1.30;99.90
54431;DHT22;40342;52.998;5.862;2023-03-01T08:14:59;-1.20;99.90
54431;DHT22;40342;52.998;5.862;2023-03-01T08:17:24;-1.20;99.90
54431;DHT22;40342;52.998;5.862;2023-03-01T08:19:50;-1.10;99.90
54431;DHT22;40342;52.998;5.862;2023-03-01T08:22:15;-1.10;99.90
54431;DHT22;40342;52.998;5.862;2023-03-01T08:24:41;-1.00;99.90
54431;DHT22;40342;52.998;5.862;2023-03-01T08:27:06;-1.00;99.90
54431;DHT22;40342;52.998;5.862;2023-03-01T08:29:32;-0.90;99.90
54431;DHT22;40342;52.998;5.862;2023-03-01T08:31:58;-0.90;99.90
54431;DHT22;40342;52.998;5.862;2023-03-01T08:34:24;-0.80;99.90
54431;DHT22;40342;52.998;5.862;2023-03-01T08:36:49;-0.80;99.90
54431;DHT22;40342;52.998;5.862;2023-03-01T08:39:17;-0.80;99.90
54431;DHT22;40342;52.998;5.862;2023-03-01T08:41:43;-0.70;99.90
54431;DHT22;40342;52.998;5.862;2023-03-01T08:44:09;-0.70;99.90
54431;DHT22;40342;52.998;5.862;2023-03-01T08:46:36;-0.60;99.90
54431;DHT22;40342;52.998;5.862;2023-03-01T08:49:09;-0.50;99.90
54431;DHT22;40342;52.998;5.862;2023-03-01T08:51:36;-0.50;99.90
54431;DHT22;40342;52.998;5.862;2023-03-01T08:54:04;-0.50;99.90
54431;DHT22;40342;52.998;5.862;2023-03-01T08:56:30;-0.40;99.90
54431;DHT22;40342;52.998;5.862;2023-03-01T08:58:56;-0.30;99.90
54431;DHT22;40342;52.998;5.862;2023-03-01T09:01:21;-0.30;99.90
54431;DHT22;40342;52.998;5.862;2023-03-01T09:03:47;-0.20;99.90
54431;DHT22;40342;52.998;5.862;2023-03-01T09:06:13;-0.10;99.90
54431;DHT22;40342;52.998;5.862;2023-03-01T09:08:40;-0.10;99.90
54431;DHT22;40342;52.998;5.862;2023-03-01T09:11:06;0.00;99.90
54431;DHT22;40342;52.998;5.862;2023-03-01T09:13:32;0.00;99.90
54431;DHT22;40342;52.998;5.862;2023-03-01T09:15:58;0.10;99.90
54431;DHT22;40342;52.998;5.862;2023-03-01T09:18:24;0.20;99.90
54431;DHT22;40342;52.998;5.862;2023-03-01T09:20:49;0.20;99.90
54431;DHT22;40342;52.998;5.862;2023-03-01T09:23:14;0.30;99.90
54431;DHT22;40342;52.998;5.862;2023-03-01T09:25:40;0.30;99.90
54431;DHT22;40342;52.998;5.862;2023-03-01T09:28:06;0.40;99.90
54431;DHT22;40342;52.998;5.862;2023-03-01T09:30:31;0.50;99.90
54431;DHT22;40342;52.998;5.862;2023-03-01T09:32:57;0.50;99.90
54431;DHT22;40342;52.998;5.862;2023-03-01T09:35:22;0.60;99.90
54431;DHT22;40342;52.998;5.862;2023-03-01T09:37:48;0.60;99.90
54431;DHT22;40342;52.998;5.862;2023-03-01T09:40:16;0.70;99.90
54431;DHT22;40342;52.998;5.862;2023-03-01T09:42:46;0.80;99.90
54431;DHT22;40342;52.998;5.862;2023-03-01T09:45:25;0.90;99.90
54431;DHT22;40342;52.998;5.862;2023-03-01T09:47:51;1.30;99.90
54431;DHT22;40342;52.998;5.862;2023-03-01T09:50:18;1.80;99.90
54431;DHT22;40342;52.998;5.862;2023-03-01T09:55:11;3.10;99.90
54431;DHT22;40342;52.998;5.862;2023-03-01T09:57:57;3.60;99.90
54431;DHT22;40342;52.998;5.862;2023-03-01T10:00:39;4.20;99.90
54431;DHT22;40342;52.998;5.862;2023-03-01T10:05:36;5.20;99.90
54431;DHT22;40342;52.998;5.862;2023-03-01T10:10:37;5.90;99.90
54431;DHT22;40342;52.998;5.862;2023-03-01T10:13:09;6.20;99.90
54431;DHT22;40342;52.998;5.862;2023-03-01T10:15:38;6.40;99.90
54431;DHT22;40342;52.998;5.862;2023-03-01T10:18:16;6.70;99.90
54431;DHT22;40342;52.998;5.862;2023-03-01T10:23:09;7.10;99.90
54431;DHT22;40342;52.998;5.862;2023-03-01T10:30:49;7.40;99.90
54431;DHT22;40342;52.998;5.862;2023-03-01T10:33:25;7.50;99.90
54431;DHT22;40342;52.998;5.862;2023-03-01T10:35:51;7.50;99.90
54431;DHT22;40342;52.998;5.862;2023-03-01T10:38:17;7.60;99.90
54431;DHT22;40342;52.998;5.862;2023-03-01T10:40:50;7.60;99.90
54431;DHT22;40342;52.998;5.862;2023-03-01T10:43:16;7.70;99.90
54431;DHT22;40342;52.998;5.862;2023-03-01T10:45:42;7.70;99.90
54431;DHT22;40342;52.998;5.862;2023-03-01T10:48:21;7.70;99.90
54431;DHT22;40342;52.998;5.862;2023-03-01T10:50:49;7.70;99.90
54431;DHT22;40342;52.998;5.862;2023-03-01T10:53:34;7.60;99.90
54431;DHT22;40342;52.998;5.862;2023-03-01T10:56:02;7.60;99.90
54431;DHT22;40342;52.998;5.862;2023-03-01T10:58:28;7.60;99.90
54431;DHT22;40342;52.998;5.862;2023-03-01T11:03:24;7.60;99.90
54431;DHT22;40342;52.998;5.862;2023-03-01T11:05:51;7.60;99.90
54431;DHT22;40342;52.998;5.862;2023-03-01T11:08:28;7.60;99.90
54431;DHT22;40342;52.998;5.862;2023-03-01T11:11:02;7.70;99.90
54431;DHT22;40342;52.998;5.862;2023-03-01T11:13:28;7.70;99.90
54431;DHT22;40342;52.998;5.862;2023-03-01T11:16:01;7.80;99.90
54431;DHT22;40342;52.998;5.862;2023-03-01T11:18:26;7.90;99.90
54431;DHT22;40342;52.998;5.862;2023-03-01T11:20:54;7.90;99.90
54431;DHT22;40342;52.998;5.862;2023-03-01T11:23:20;8.00;99.90
54431;DHT22;40342;52.998;5.862;2023-03-01T11:26:07;8.10;99.90
54431;DHT22;40342;52.998;5.862;2023-03-01T11:28:33;8.10;99.90
54431;DHT22;40342;52.998;5.862;2023-03-01T11:33:33;8.30;99.90
54431;DHT22;40342;52.998;5.862;2023-03-01T11:36:01;8.30;99.90
54431;DHT22;40342;52.998;5.862;2023-03-01T11:38:29;8.40;99.90
54431;DHT22;40342;52.998;5.862;2023-03-01T11:41:00;8.50;99.90
54431;DHT22;40342;52.998;5.862;2023-03-01T11:48:56;8.60;99.90
54431;DHT22;40342;52.998;5.862;2023-03-01T11:56:40;8.80;99.90
54431;DHT22;40342;52.998;5.862;2023-03-01T12:01:57;9.00;99.90
54431;DHT22;40342;52.998;5.862;2023-03-01T12:04:31;9.10;99.90
54431;DHT22;40342;52.998;5.862;2023-03-01T12:12:25;9.30;99.90
54431;DHT22;40342;52.998;5.862;2023-03-01T12:19:52;9.40;99.90
54431;DHT22;40342;52.998;5.862;2023-03-01T12:38:42;9.80;99.90
54431;DHT22;40342;52.998;5.862;2023-03-01T12:43:57;10.00;99.90
54431;DHT22;40342;52.998;5.862;2023-03-01T12:46:26;10.10;99.90
54431;DHT22;40342;52.998;5.862;2023-03-01T12:49:02;10.10;99.90
54431;DHT22;40342;52.998;5.862;2023-03-01T12:51:31;10.20;99.90
54431;DHT22;40342;52.998;5.862;2023-03-01T12:53:58;10.10;99.90
54431;DHT22;40342;52.998;5.862;2023-03-01T12:56:25;10.20;99.90
54431;DHT22;40342;52.998;5.862;2023-03-01T13:04:12;10.20;99.90
54431;DHT22;40342;52.998;5.862;2023-03-01T13:14:53;10.30;99.90
54431;DHT22;40342;52.998;5.862;2023-03-01T13:17:41;10.30;99.90
54431;DHT22;40342;52.998;5.862;2023-03-01T13:20:11;10.40;99.90
54431;DHT22;40342;52.998;5.862;2023-03-01T13:22:37;10.50;99.90
54431;DHT22;40342;52.998;5.862;2023-03-01T13:25:11;10.50;99.90
54431;DHT22;40342;52.998;5.862;2023-03-01T13:27:38;10.60;99.90
54431;DHT22;40342;52.998;5.862;2023-03-01T13:30:04;10.70;99.90
54431;DHT22;40342;52.998;5.862;2023-03-01T13:32:34;10.80;99.90
54431;DHT22;40342;52.998;5.862;2023-03-01T13:37:42;10.90;99.90
54431;DHT22;40342;52.998;5.862;2023-03-01T13:42:44;10.90;99.90
54431;DHT22;40342;52.998;5.862;2023-03-01T13:47:52;11.10;99.90
54431;DHT22;40342;52.998;5.862;2023-03-01T13:50:28;11.20;99.90
54431;DHT22;40342;52.998;5.862;2023-03-01T13:52:58;11.20;99.90
54431;DHT22;40342;52.998;5.862;2023-03-01T13:58:03;11.10;99.90
54431;DHT22;40342;52.998;5.862;2023-03-01T14:05:36;11.20;99.90
54431;DHT22;40342;52.998;5.862;2023-03-01T14:08:14;11.20;99.90
54431;DHT22;40342;52.998;5.862;2023-03-01T14:10:44;11.30;99.90
54431;DHT22;40342;52.998;5.862;2023-03-01T14:13:22;11.30;99.90
54431;DHT22;40342;52.998;5.862;2023-03-01T14:16:27;11.30;99.90
54431;DHT22;40342;52.998;5.862;2023-03-01T14:19:01;11.30;99.90
54431;DHT22;40342;52.998;5.862;2023-03-01T14:21:29;11.30;99.90
54431;DHT22;40342;52.998;5.862;2023-03-01T14:23:55;11.30;99.90
54431;DHT22;40342;52.998;5.862;2023-03-01T14:26:22;11.30;99.90
54431;DHT22;40342;52.998;5.862;2023-03-01T14:28:48;11.30;99.90
54431;DHT22;40342;52.998;5.862;2023-03-01T14:31:31;11.30;99.90
54431;DHT22;40342;52.998;5.862;2023-03-01T14:33:58;11.30;99.90
54431;DHT22;40342;52.998;5.862;2023-03-01T14:36:27;11.30;99.90
54431;DHT22;40342;52.998;5.862;2023-03-01T14:38:53;11.30;99.90
54431;DHT22;40342;52.998;5.862;2023-03-01T14:41:23;11.40;99.90
54431;DHT22;40342;52.998;5.862;2023-03-01T14:43:50;11.40;99.90
54431;DHT22;40342;52.998;5.862;2023-03-01T14:46:19;11.40;99.70
54431;DHT22;40342;52.998;5.862;2023-03-01T14:48:48;11.30;99.90
54431;DHT22;40342;52.998;5.862;2023-03-01T14:51:13;11.40;99.90
54431;DHT22;40342;52.998;5.862;2023-03-01T14:53:39;11.30;99.90
54431;DHT22;40342;52.998;5.862;2023-03-01T14:56:05;11.30;99.90
54431;DHT22;40342;52.998;5.862;2023-03-01T14:58:32;11.30;99.90
54431;DHT22;40342;52.998;5.862;2023-03-01T15:01:02;11.30;99.90
54431;DHT22;40342;52.998;5.862;2023-03-01T15:03:33;11.30;99.90
54431;DHT22;40342;52.998;5.862;2023-03-01T15:06:02;11.30;99.90
54431;DHT22;40342;52.998;5.862;2023-03-01T15:08:28;11.40;99.90
54431;DHT22;40342;52.998;5.862;2023-03-01T15:10:59;11.30;99.90
54431;DHT22;40342;52.998;5.862;2023-03-01T15:13:26;11.30;99.90
54431;DHT22;40342;52.998;5.862;2023-03-01T15:18:33;11.30;99.90
54431;DHT22;40342;52.998;5.862;2023-03-01T15:21:06;11.20;99.90
54431;DHT22;40342;52.998;5.862;2023-03-01T15:23:32;11.20;99.90
54431;DHT22;40342;52.998;5.862;2023-03-01T15:25:59;11.20;99.90
54431;DHT22;40342;52.998;5.862;2023-03-01T15:28:37;11.20;99.90
54431;DHT22;40342;52.998;5.862;2023-03-01T15:31:21;11.20;99.90
54431;DHT22;40342;52.998;5.862;2023-03-01T15:33:47;11.20;99.90
54431;DHT22;40342;52.998;5.862;2023-03-01T15:36:29;11.10;99.90
54431;DHT22;40342;52.998;5.862;2023-03-01T15:38:55;11.10;99.90
54431;DHT22;40342;52.998;5.862;2023-03-01T15:43:50;11.00;99.90
